sensor_id;sensor_type;location;lat;lon;timestamp;P1;durP1;ratioP1;P2;durP2;ratioP2
9797;SDS011;4938;57.492;12.652;2022-08-19T00:02:37;3.72;;;3.53;;
9797;SDS011;4938;57.492;12.652;2022-08-19T00:05:24;3.90;;;3.70;;
9797;SDS011;4938;57.492;12.652;2022-08-19T00:08:11;3.55;;;3.35;;
9797;SDS011;4938;57.492;12.652;2022-08-19T00:10:58;3.28;;;3.17;;
9797;SDS011;4938;57.492;12.652;2022-08-19T00:13:45;3.78;;;3.58;;
9797;SDS011;4938;57.492;12.652;2022-08-19T00:16:35;3.83;;;3.63;;
9797;SDS011;4938;57.492;12.652;2022-08-19T00:19:22;3.70;;;3.50;;
9797;SDS011;4938;57.492;12.652;2022-08-19T00:22:10;3.65;;;3.45;;
9797;SDS011;4938;57.492;12.652;2022-08-19T00:24:57;3.47;;;3.38;;
9797;SDS011;4938;57.492;12.652;2022-08-19T00:27:44;3.90;;;3.70;;
9797;SDS011;4938;57.492;12.652;2022-08-19T00:30:31;3.50;;;3.30;;
9797;SDS011;4938;57.492;12.652;2022-08-19T00:33:19;3.40;;;3.20;;
9797;SDS011;4938;57.492;12.652;2022-08-19T00:36:07;3.45;;;3.25;;
9797;SDS011;4938;57.492;12.652;2022-08-19T00:38:55;3.58;;;3.47;;
9797;SDS011;4938;57.492;12.652;2022-08-19T00:41:43;3.90;;;3.60;;
9797;SDS011;4938;57.492;12.652;2022-08-19T00:44:32;3.63;;;3.47;;
9797;SDS011;4938;57.492;12.652;2022-08-19T00:47:19;3.72;;;3.53;;
9797;SDS011;4938;57.492;12.652;2022-08-19T00:50:09;3.50;;;3.40;;
9797;SDS011;4938;57.492;12.652;2022-08-19T00:52:57;3.80;;;3.50;;
9797;SDS011;4938;57.492;12.652;2022-08-19T00:55:45;3.42;;;3.33;;
9797;SDS011;4938;57.492;12.652;2022-08-19T00:58:33;3.50;;;3.40;;
9797;SDS011;4938;57.492;12.652;2022-08-19T01:01:21;4.05;;;3.85;;
9797;SDS011;4938;57.492;12.652;2022-08-19T01:04:08;3.40;;;3.30;;
9797;SDS011;4938;57.492;12.652;2022-08-19T01:06:57;3.47;;;3.38;;
9797;SDS011;4938;57.492;12.652;2022-08-19T01:09:44;3.35;;;3.25;;
9797;SDS011;4938;57.492;12.652;2022-08-19T01:12:32;3.47;;;3.38;;
9797;SDS011;4938;57.492;12.652;2022-08-19T01:15:21;3.40;;;3.30;;
9797;SDS011;4938;57.492;12.652;2022-08-19T01:18:13;3.10;;;3.00;;
9797;SDS011;4938;57.492;12.652;2022-08-19T01:21:05;3.70;;;3.50;;
9797;SDS011;4938;57.492;12.652;2022-08-19T01:23:58;3.35;;;3.25;;
9797;SDS011;4938;57.492;12.652;2022-08-19T01:26:45;3.50;;;3.30;;
9797;SDS011;4938;57.492;12.652;2022-08-19T01:29:32;3.15;;;3.05;;
9797;SDS011;4938;57.492;12.652;2022-08-19T01:32:20;3.30;;;3.20;;
9797;SDS011;4938;57.492;12.652;2022-08-19T01:35:08;3.60;;;3.40;;
9797;SDS011;4938;57.492;12.652;2022-08-19T01:37:57;4.00;;;3.80;;
9797;SDS011;4938;57.492;12.652;2022-08-19T01:40:47;3.20;;;3.10;;
9797;SDS011;4938;57.492;12.652;2022-08-19T01:43:34;3.55;;;3.35;;
9797;SDS011;4938;57.492;12.652;2022-08-19T01:46:22;3.47;;;3.28;;
9797;SDS011;4938;57.492;12.652;2022-08-19T01:49:09;3.40;;;3.30;;
9797;SDS011;4938;57.492;12.652;2022-08-19T01:51:56;3.67;;;3.55;;
9797;SDS011;4938;57.492;12.652;2022-08-19T01:54:45;3.60;;;3.40;;
9797;SDS011;4938;57.492;12.652;2022-08-19T01:57:33;3.28;;;3.17;;
9797;SDS011;4938;57.492;12.652;2022-08-19T02:00:22;3.72;;;3.42;;
9797;SDS011;4938;57.492;12.652;2022-08-19T02:03:10;3.05;;;2.95;;
9797;SDS011;4938;57.492;12.652;2022-08-19T02:05:58;3.25;;;3.15;;
9797;SDS011;4938;57.492;12.652;2022-08-19T02:08:47;3.53;;;3.33;;
9797;SDS011;4938;57.492;12.652;2022-08-19T02:11:35;3.67;;;3.47;;
9797;SDS011;4938;57.492;12.652;2022-08-19T02:14:24;3.28;;;3.15;;
9797;SDS011;4938;57.492;12.652;2022-08-19T02:17:11;3.40;;;3.30;;
9797;SDS011;4938;57.492;12.652;2022-08-19T02:19:58;3.30;;;3.20;;
9797;SDS011;4938;57.492;12.652;2022-08-19T02:22:45;3.17;;;3.07;;
9797;SDS011;4938;57.492;12.652;2022-08-19T02:25:32;3.13;;;3.03;;
9797;SDS011;4938;57.492;12.652;2022-08-19T02:28:20;3.33;;;3.22;;
9797;SDS011;4938;57.492;12.652;2022-08-19T02:31:10;3.20;;;3.00;;
9797;SDS011;4938;57.492;12.652;2022-08-19T02:34:00;3.15;;;3.05;;
9797;SDS011;4938;57.492;12.652;2022-08-19T02:36:47;3.13;;;3.03;;
9797;SDS011;4938;57.492;12.652;2022-08-19T02:39:34;3.20;;;3.10;;
9797;SDS011;4938;57.492;12.652;2022-08-19T02:42:20;3.28;;;3.10;;
9797;SDS011;4938;57.492;12.652;2022-08-19T02:45:07;3.20;;;3.10;;
9797;SDS011;4938;57.492;12.652;2022-08-19T02:47:56;3.45;;;3.25;;
9797;SDS011;4938;57.492;12.652;2022-08-19T02:50:43;3.03;;;2.92;;
9797;SDS011;4938;57.492;12.652;2022-08-19T02:53:30;2.92;;;2.83;;
9797;SDS011;4938;57.492;12.652;2022-08-19T02:56:18;3.05;;;2.95;;
9797;SDS011;4938;57.492;12.652;2022-08-19T02:59:05;3.10;;;3.00;;
9797;SDS011;4938;57.492;12.652;2022-08-19T03:01:53;3.08;;;2.88;;
9797;SDS011;4938;57.492;12.652;2022-08-19T03:04:42;3.08;;;2.97;;
9797;SDS011;4938;57.492;12.652;2022-08-19T03:07:29;2.88;;;2.78;;
9797;SDS011;4938;57.492;12.652;2022-08-19T03:10:16;3.17;;;2.97;;
9797;SDS011;4938;57.492;12.652;2022-08-19T03:13:03;3.10;;;3.00;;
9797;SDS011;4938;57.492;12.652;2022-08-19T03:15:50;3.30;;;3.10;;
9797;SDS011;4938;57.492;12.652;2022-08-19T03:18:37;2.90;;;2.80;;
9797;SDS011;4938;57.492;12.652;2022-08-19T03:21:26;2.80;;;2.70;;
9797;SDS011;4938;57.492;12.652;2022-08-19T03:24:15;2.92;;;2.83;;
9797;SDS011;4938;57.492;12.652;2022-08-19T03:27:04;2.65;;;2.55;;
9797;SDS011;4938;57.492;12.652;2022-08-19T03:29:51;2.53;;;2.43;;
9797;SDS011;4938;57.492;12.652;2022-08-19T03:32:38;2.97;;;2.87;;
9797;SDS011;4938;57.492;12.652;2022-08-19T03:35:25;2.90;;;2.80;;
9797;SDS011;4938;57.492;12.652;2022-08-19T03:38:13;3.10;;;3.00;;
9797;SDS011;4938;57.492;12.652;2022-08-19T03:41:04;2.80;;;2.70;;
9797;SDS011;4938;57.492;12.652;2022-08-19T03:43:53;2.75;;;2.65;;
9797;SDS011;4938;57.492;12.652;2022-08-19T03:46:40;2.90;;;2.80;;
9797;SDS011;4938;57.492;12.652;2022-08-19T03:49:28;3.00;;;2.90;;
9797;SDS011;4938;57.492;12.652;2022-08-19T03:52:18;2.70;;;2.60;;
9797;SDS011;4938;57.492;12.652;2022-08-19T03:55:06;2.90;;;2.80;;
9797;SDS011;4938;57.492;12.652;2022-08-19T03:57:54;2.60;;;2.50;;
9797;SDS011;4938;57.492;12.652;2022-08-19T04:00:41;2.80;;;2.70;;
9797;SDS011;4938;57.492;12.652;2022-08-19T04:03:28;2.70;;;2.60;;
9797;SDS011;4938;57.492;12.652;2022-08-19T04:06:17;2.80;;;2.60;;
9797;SDS011;4938;57.492;12.652;2022-08-19T04:09:07;2.50;;;2.40;;
9797;SDS011;4938;57.492;12.652;2022-08-19T04:11:58;2.80;;;2.70;;
9797;SDS011;4938;57.492;12.652;2022-08-19T04:14:45;2.50;;;2.40;;
9797;SDS011;4938;57.492;12.652;2022-08-19T04:17:32;2.65;;;2.55;;
9797;SDS011;4938;57.492;12.652;2022-08-19T04:20:19;2.53;;;2.42;;
9797;SDS011;4938;57.492;12.652;2022-08-19T04:23:06;2.45;;;2.35;;
9797;SDS011;4938;57.492;12.652;2022-08-19T04:25:53;2.77;;;2.67;;
9797;SDS011;4938;57.492;12.652;2022-08-19T04:28:42;2.90;;;2.80;;
9797;SDS011;4938;57.492;12.652;2022-08-19T04:31:30;2.80;;;2.70;;
9797;SDS011;4938;57.492;12.652;2022-08-19T04:34:21;2.80;;;2.70;;
9797;SDS011;4938;57.492;12.652;2022-08-19T04:37:10;2.63;;;2.53;;
9797;SDS011;4938;57.492;12.652;2022-08-19T04:39:57;2.72;;;2.63;;
9797;SDS011;4938;57.492;12.652;2022-08-19T04:43:02;2.90;;;2.80;;
9797;SDS011;4938;57.492;12.652;2022-08-19T04:45:50;2.67;;;2.58;;
9797;SDS011;4938;57.492;12.652;2022-08-19T04:48:38;2.63;;;2.53;;
9797;SDS011;4938;57.492;12.652;2022-08-19T04:51:25;2.50;;;2.40;;
9797;SDS011;4938;57.492;12.652;2022-08-19T04:54:12;2.58;;;2.47;;
9797;SDS011;4938;57.492;12.652;2022-08-19T04:57:00;2.53;;;2.42;;
9797;SDS011;4938;57.492;12.652;2022-08-19T04:59:46;2.75;;;2.65;;
9797;SDS011;4938;57.492;12.652;2022-08-19T05:02:36;2.58;;;2.47;;
9797;SDS011;4938;57.492;12.652;2022-08-19T05:05:23;2.83;;;2.72;;
9797;SDS011;4938;57.492;12.652;2022-08-19T05:08:10;2.70;;;2.60;;
9797;SDS011;4938;57.492;12.652;2022-08-19T05:10:57;2.70;;;2.60;;
9797;SDS011;4938;57.492;12.652;2022-08-19T05:13:45;2.80;;;2.70;;
9797;SDS011;4938;57.492;12.652;2022-08-19T05:16:34;2.40;;;2.30;;
9797;SDS011;4938;57.492;12.652;2022-08-19T05:19:22;2.70;;;2.60;;
9797;SDS011;4938;57.492;12.652;2022-08-19T05:22:26;2.70;;;2.60;;
9797;SDS011;4938;57.492;12.652;2022-08-19T05:25:20;2.20;;;2.20;;
9797;SDS011;4938;57.492;12.652;2022-08-19T05:28:07;2.80;;;2.63;;
9797;SDS011;4938;57.492;12.652;2022-08-19T05:30:55;2.50;;;2.40;;
9797;SDS011;4938;57.492;12.652;2022-08-19T05:33:42;2.70;;;2.60;;
9797;SDS011;4938;57.492;12.652;2022-08-19T05:36:35;2.60;;;2.50;;
9797;SDS011;4938;57.492;12.652;2022-08-19T05:39:25;2.70;;;2.60;;
9797;SDS011;4938;57.492;12.652;2022-08-19T05:42:14;2.80;;;2.70;;
9797;SDS011;4938;57.492;12.652;2022-08-19T05:45:02;2.80;;;2.70;;
9797;SDS011;4938;57.492;12.652;2022-08-19T05:47:50;2.60;;;2.50;;
9797;SDS011;4938;57.492;12.652;2022-08-19T05:50:37;2.70;;;2.60;;
9797;SDS011;4938;57.492;12.652;2022-08-19T05:53:25;2.88;;;2.78;;
9797;SDS011;4938;57.492;12.652;2022-08-19T05:56:13;2.33;;;2.28;;
9797;SDS011;4938;57.492;12.652;2022-08-19T05:59:02;2.60;;;2.50;;
9797;SDS011;4938;57.492;12.652;2022-08-19T06:01:55;2.70;;;2.60;;
9797;SDS011;4938;57.492;12.652;2022-08-19T06:04:42;2.70;;;2.60;;
9797;SDS011;4938;57.492;12.652;2022-08-19T06:07:29;2.60;;;2.50;;
9797;SDS011;4938;57.492;12.652;2022-08-19T06:10:18;2.83;;;2.72;;
9797;SDS011;4938;57.492;12.652;2022-08-19T06:13:05;2.80;;;2.70;;
9797;SDS011;4938;57.492;12.652;2022-08-19T06:15:52;2.80;;;2.70;;
9797;SDS011;4938;57.492;12.652;2022-08-19T06:18:39;3.03;;;2.92;;
9797;SDS011;4938;57.492;12.652;2022-08-19T06:21:27;2.70;;;2.60;;
9797;SDS011;4938;57.492;12.652;2022-08-19T06:24:16;3.00;;;2.90;;
9797;SDS011;4938;57.492;12.652;2022-08-19T06:27:05;2.70;;;2.60;;
9797;SDS011;4938;57.492;12.652;2022-08-19T06:29:52;2.80;;;2.70;;
9797;SDS011;4938;57.492;12.652;2022-08-19T06:32:40;2.60;;;2.50;;
9797;SDS011;4938;57.492;12.652;2022-08-19T06:35:26;2.70;;;2.60;;
9797;SDS011;4938;57.492;12.652;2022-08-19T06:38:14;3.08;;;2.97;;
9797;SDS011;4938;57.492;12.652;2022-08-19T06:41:02;2.95;;;2.85;;
9797;SDS011;4938;57.492;12.652;2022-08-19T06:43:51;3.00;;;2.90;;
9797;SDS011;4938;57.492;12.652;2022-08-19T06:46:39;2.95;;;2.85;;
9797;SDS011;4938;57.492;12.652;2022-08-19T06:49:27;3.03;;;2.92;;
9797;SDS011;4938;57.492;12.652;2022-08-19T06:52:16;3.00;;;2.90;;
9797;SDS011;4938;57.492;12.652;2022-08-19T06:55:03;3.10;;;3.00;;
9797;SDS011;4938;57.492;12.652;2022-08-19T06:57:51;2.70;;;2.60;;
9797;SDS011;4938;57.492;12.652;2022-08-19T07:00:39;3.03;;;2.92;;
9797;SDS011;4938;57.492;12.652;2022-08-19T07:03:27;3.38;;;3.05;;
9797;SDS011;4938;57.492;12.652;2022-08-19T07:06:16;2.85;;;2.75;;
9797;SDS011;4938;57.492;12.652;2022-08-19T07:09:06;2.95;;;2.85;;
9797;SDS011;4938;57.492;12.652;2022-08-19T07:11:54;3.35;;;3.25;;
9797;SDS011;4938;57.492;12.652;2022-08-19T07:14:42;3.05;;;2.95;;
9797;SDS011;4938;57.492;12.652;2022-08-19T07:17:32;3.38;;;3.25;;
9797;SDS011;4938;57.492;12.652;2022-08-19T07:20:20;3.80;;;3.60;;
9797;SDS011;4938;57.492;12.652;2022-08-19T07:23:07;3.83;;;3.65;;
9797;SDS011;4938;57.492;12.652;2022-08-19T07:25:54;3.50;;;3.40;;
9797;SDS011;4938;57.492;12.652;2022-08-19T07:28:42;3.38;;;3.28;;
9797;SDS011;4938;57.492;12.652;2022-08-19T07:31:29;3.70;;;3.50;;
9797;SDS011;4938;57.492;12.652;2022-08-19T07:34:18;3.70;;;3.60;;
9797;SDS011;4938;57.492;12.652;2022-08-19T07:37:05;3.50;;;3.30;;
9797;SDS011;4938;57.492;12.652;2022-08-19T07:39:53;3.50;;;3.40;;
9797;SDS011;4938;57.492;12.652;2022-08-19T07:42:40;3.60;;;3.45;;
9797;SDS011;4938;57.492;12.652;2022-08-19T07:45:28;3.60;;;3.40;;
9797;SDS011;4938;57.492;12.652;2022-08-19T07:48:17;3.90;;;3.70;;
9797;SDS011;4938;57.492;12.652;2022-08-19T07:51:05;3.63;;;3.50;;
9797;SDS011;4938;57.492;12.652;2022-08-19T07:53:53;3.60;;;3.50;;
9797;SDS011;4938;57.492;12.652;2022-08-19T07:56:40;3.60;;;3.50;;
9797;SDS011;4938;57.492;12.652;2022-08-19T07:59:27;4.10;;;3.80;;
9797;SDS011;4938;57.492;12.652;2022-08-19T08:02:15;4.00;;;3.80;;
9797;SDS011;4938;57.492;12.652;2022-08-19T08:05:02;3.63;;;3.42;;
9797;SDS011;4938;57.492;12.652;2022-08-19T08:08:04;3.55;;;3.45;;
9797;SDS011;4938;57.492;12.652;2022-08-19T08:11:23;4.05;;;3.85;;
9797;SDS011;4938;57.492;12.652;2022-08-19T08:14:11;3.70;;;3.50;;
9797;SDS011;4938;57.492;12.652;2022-08-19T08:16:58;3.67;;;3.58;;
9797;SDS011;4938;57.492;12.652;2022-08-19T08:19:46;3.80;;;3.70;;
9797;SDS011;4938;57.492;12.652;2022-08-19T08:22:35;4.20;;;4.00;;
9797;SDS011;4938;57.492;12.652;2022-08-19T08:25:41;4.15;;;3.85;;
9797;SDS011;4938;57.492;12.652;2022-08-19T08:28:28;3.88;;;3.67;;
9797;SDS011;4938;57.492;12.652;2022-08-19T08:31:15;4.25;;;4.05;;
9797;SDS011;4938;57.492;12.652;2022-08-19T08:34:03;4.00;;;3.80;;
9797;SDS011;4938;57.492;12.652;2022-08-19T08:36:50;4.05;;;3.85;;
9797;SDS011;4938;57.492;12.652;2022-08-19T08:39:37;4.22;;;4.00;;
9797;SDS011;4938;57.492;12.652;2022-08-19T08:42:27;4.13;;;3.92;;
9797;SDS011;4938;57.492;12.652;2022-08-19T08:45:17;3.85;;;3.65;;
9797;SDS011;4938;57.492;12.652;2022-08-19T08:48:16;4.25;;;4.05;;
9797;SDS011;4938;57.492;12.652;2022-08-19T08:51:10;4.22;;;4.03;;
9797;SDS011;4938;57.492;12.652;2022-08-19T08:54:01;3.72;;;3.63;;
9797;SDS011;4938;57.492;12.652;2022-08-19T08:56:52;4.57;;;4.30;;
9797;SDS011;4938;57.492;12.652;2022-08-19T08:59:41;4.03;;;3.83;;
9797;SDS011;4938;57.492;12.652;2022-08-19T09:02:36;4.20;;;4.00;;
9797;SDS011;4938;57.492;12.652;2022-08-19T09:05:25;4.28;;;4.07;;
9797;SDS011;4938;57.492;12.652;2022-08-19T09:08:17;4.30;;;4.00;;
9797;SDS011;4938;57.492;12.652;2022-08-19T09:11:13;4.65;;;4.45;;
9797;SDS011;4938;57.492;12.652;2022-08-19T09:14:06;4.40;;;4.20;;
9797;SDS011;4938;57.492;12.652;2022-08-19T09:17:04;4.32;;;4.13;;
9797;SDS011;4938;57.492;12.652;2022-08-19T09:19:54;4.20;;;4.00;;
9797;SDS011;4938;57.492;12.652;2022-08-19T09:22:42;4.40;;;4.20;;
9797;SDS011;4938;57.492;12.652;2022-08-19T09:25:30;4.10;;;3.90;;
9797;SDS011;4938;57.492;12.652;2022-08-19T09:28:19;4.00;;;3.80;;
9797;SDS011;4938;57.492;12.652;2022-08-19T09:31:06;4.30;;;4.10;;
9797;SDS011;4938;57.492;12.652;2022-08-19T09:33:55;4.32;;;4.13;;
9797;SDS011;4938;57.492;12.652;2022-08-19T09:36:43;4.47;;;4.28;;
9797;SDS011;4938;57.492;12.652;2022-08-19T09:39:30;4.28;;;4.07;;
9797;SDS011;4938;57.492;12.652;2022-08-19T09:42:17;4.72;;;4.53;;
9797;SDS011;4938;57.492;12.652;2022-08-19T09:45:04;4.97;;;4.78;;
9797;SDS011;4938;57.492;12.652;2022-08-19T09:47:52;4.57;;;4.38;;
9797;SDS011;4938;57.492;12.652;2022-08-19T09:50:40;4.35;;;4.15;;
9797;SDS011;4938;57.492;12.652;2022-08-19T09:53:27;4.60;;;4.40;;
9797;SDS011;4938;57.492;12.652;2022-08-19T09:56:14;4.95;;;4.63;;
9797;SDS011;4938;57.492;12.652;2022-08-19T09:59:02;5.00;;;4.60;;
9797;SDS011;4938;57.492;12.652;2022-08-19T10:01:49;4.50;;;4.30;;
9797;SDS011;4938;57.492;12.652;2022-08-19T10:04:37;4.95;;;4.65;;
9797;SDS011;4938;57.492;12.652;2022-08-19T10:07:43;4.55;;;4.35;;
9797;SDS011;4938;57.492;12.652;2022-08-19T10:10:34;4.25;;;4.05;;
9797;SDS011;4938;57.492;12.652;2022-08-19T10:13:26;4.68;;;4.47;;
9797;SDS011;4938;57.492;12.652;2022-08-19T10:16:15;4.57;;;4.38;;
9797;SDS011;4938;57.492;12.652;2022-08-19T10:19:04;4.90;;;4.70;;
9797;SDS011;4938;57.492;12.652;2022-08-19T10:21:51;4.70;;;4.50;;
9797;SDS011;4938;57.492;12.652;2022-08-19T10:24:40;4.50;;;4.20;;
9797;SDS011;4938;57.492;12.652;2022-08-19T10:27:27;4.63;;;4.43;;
9797;SDS011;4938;57.492;12.652;2022-08-19T10:30:14;4.90;;;4.60;;
9797;SDS011;4938;57.492;12.652;2022-08-19T10:33:01;4.60;;;4.40;;
9797;SDS011;4938;57.492;12.652;2022-08-19T10:35:48;4.97;;;4.68;;
9797;SDS011;4938;57.492;12.652;2022-08-19T10:38:35;4.70;;;4.50;;
9797;SDS011;4938;57.492;12.652;2022-08-19T10:41:24;4.65;;;4.45;;
9797;SDS011;4938;57.492;12.652;2022-08-19T10:44:13;4.82;;;4.63;;
9797;SDS011;4938;57.492;12.652;2022-08-19T10:47:01;4.75;;;4.47;;
9797;SDS011;4938;57.492;12.652;2022-08-19T10:49:49;4.75;;;4.55;;
9797;SDS011;4938;57.492;12.652;2022-08-19T10:52:53;5.15;;;4.85;;
9797;SDS011;4938;57.492;12.652;2022-08-19T10:55:40;4.63;;;4.43;;
9797;SDS011;4938;57.492;12.652;2022-08-19T10:58:46;4.70;;;4.45;;
9797;SDS011;4938;57.492;12.652;2022-08-19T11:01:34;4.05;;;3.85;;
9797;SDS011;4938;57.492;12.652;2022-08-19T11:04:21;4.57;;;4.38;;
9797;SDS011;4938;57.492;12.652;2022-08-19T11:07:08;4.40;;;4.20;;
9797;SDS011;4938;57.492;12.652;2022-08-19T11:09:57;4.32;;;4.13;;
9797;SDS011;4938;57.492;12.652;2022-08-19T11:12:44;4.43;;;4.22;;
9797;SDS011;4938;57.492;12.652;2022-08-19T11:15:33;4.50;;;4.30;;
9797;SDS011;4938;57.492;12.652;2022-08-19T11:18:20;4.53;;;4.32;;
9797;SDS011;4938;57.492;12.652;2022-08-19T11:21:08;4.38;;;4.18;;
9797;SDS011;4938;57.492;12.652;2022-08-19T11:23:58;4.72;;;4.43;;
9797;SDS011;4938;57.492;12.652;2022-08-19T11:26:47;4.80;;;4.50;;
9797;SDS011;4938;57.492;12.652;2022-08-19T11:29:35;4.60;;;4.40;;
9797;SDS011;4938;57.492;12.652;2022-08-19T11:32:26;4.93;;;4.63;;
9797;SDS011;4938;57.492;12.652;2022-08-19T11:35:13;4.43;;;4.22;;
9797;SDS011;4938;57.492;12.652;2022-08-19T11:38:00;4.45;;;4.25;;
9797;SDS011;4938;57.492;12.652;2022-08-19T11:40:53;5.10;;;4.80;;
9797;SDS011;4938;57.492;12.652;2022-08-19T11:43:41;4.50;;;4.30;;
9797;SDS011;4938;57.492;12.652;2022-08-19T11:46:29;4.60;;;4.40;;
9797;SDS011;4938;57.492;12.652;2022-08-19T11:49:17;4.22;;;4.03;;
9797;SDS011;4938;57.492;12.652;2022-08-19T11:52:06;4.40;;;4.20;;
9797;SDS011;4938;57.492;12.652;2022-08-19T11:54:53;4.85;;;4.60;;
9797;SDS011;4938;57.492;12.652;2022-08-19T11:57:40;4.68;;;4.47;;
9797;SDS011;4938;57.492;12.652;2022-08-19T12:00:28;5.00;;;4.80;;
9797;SDS011;4938;57.492;12.652;2022-08-19T12:03:15;4.97;;;4.60;;
9797;SDS011;4938;57.492;12.652;2022-08-19T12:06:04;4.55;;;4.35;;
9797;SDS011;4938;57.492;12.652;2022-08-19T12:08:52;4.70;;;4.50;;
9797;SDS011;4938;57.492;12.652;2022-08-19T12:11:40;5.00;;;4.70;;
9797;SDS011;4938;57.492;12.652;2022-08-19T12:14:27;4.55;;;4.35;;
9797;SDS011;4938;57.492;12.652;2022-08-19T12:17:15;4.85;;;4.65;;
9797;SDS011;4938;57.492;12.652;2022-08-19T12:20:03;4.70;;;4.50;;
9797;SDS011;4938;57.492;12.652;2022-08-19T12:22:52;5.00;;;4.70;;
9797;SDS011;4938;57.492;12.652;2022-08-19T12:25:43;4.30;;;4.10;;
9797;SDS011;4938;57.492;12.652;2022-08-19T12:28:37;4.70;;;4.50;;
9797;SDS011;4938;57.492;12.652;2022-08-19T12:31:24;4.55;;;4.35;;
9797;SDS011;4938;57.492;12.652;2022-08-19T12:34:11;4.80;;;4.60;;
9797;SDS011;4938;57.492;12.652;2022-08-19T12:37:00;4.93;;;4.70;;
9797;SDS011;4938;57.492;12.652;2022-08-19T12:39:49;4.68;;;4.47;;
9797;SDS011;4938;57.492;12.652;2022-08-19T12:42:37;4.80;;;4.60;;
9797;SDS011;4938;57.492;12.652;2022-08-19T12:45:27;4.82;;;4.53;;
9797;SDS011;4938;57.492;12.652;2022-08-19T12:48:14;4.68;;;4.47;;
9797;SDS011;4938;57.492;12.652;2022-08-19T12:51:05;4.90;;;4.70;;
9797;SDS011;4938;57.492;12.652;2022-08-19T12:53:54;4.63;;;4.32;;
9797;SDS011;4938;57.492;12.652;2022-08-19T12:56:43;5.00;;;4.70;;
9797;SDS011;4938;57.492;12.652;2022-08-19T12:59:32;4.68;;;4.47;;
9797;SDS011;4938;57.492;12.652;2022-08-19T13:02:20;4.20;;;4.00;;
9797;SDS011;4938;57.492;12.652;2022-08-19T13:05:08;4.30;;;4.10;;
9797;SDS011;4938;57.492;12.652;2022-08-19T13:07:58;4.60;;;4.40;;
9797;SDS011;4938;57.492;12.652;2022-08-19T13:10:45;4.50;;;4.30;;
9797;SDS011;4938;57.492;12.652;2022-08-19T13:13:34;4.43;;;4.22;;
9797;SDS011;4938;57.492;12.652;2022-08-19T13:16:21;4.40;;;4.20;;
9797;SDS011;4938;57.492;12.652;2022-08-19T13:19:08;4.85;;;4.65;;
9797;SDS011;4938;57.492;12.652;2022-08-19T13:21:57;4.20;;;4.00;;
9797;SDS011;4938;57.492;12.652;2022-08-19T13:24:44;4.57;;;4.38;;
9797;SDS011;4938;57.492;12.652;2022-08-19T13:27:31;4.60;;;4.30;;
9797;SDS011;4938;57.492;12.652;2022-08-19T13:30:19;4.43;;;4.22;;
9797;SDS011;4938;57.492;12.652;2022-08-19T13:33:24;4.40;;;4.20;;
9797;SDS011;4938;57.492;12.652;2022-08-19T13:36:12;4.40;;;4.20;;
9797;SDS011;4938;57.492;12.652;2022-08-19T13:38:59;4.50;;;4.30;;
9797;SDS011;4938;57.492;12.652;2022-08-19T13:41:46;4.55;;;4.35;;
9797;SDS011;4938;57.492;12.652;2022-08-19T13:44:35;4.60;;;4.40;;
9797;SDS011;4938;57.492;12.652;2022-08-19T13:47:23;5.22;;;4.93;;
9797;SDS011;4938;57.492;12.652;2022-08-19T13:50:10;4.80;;;4.60;;
9797;SDS011;4938;57.492;12.652;2022-08-19T13:53:00;4.63;;;4.43;;
9797;SDS011;4938;57.492;12.652;2022-08-19T13:55:47;4.60;;;4.40;;
9797;SDS011;4938;57.492;12.652;2022-08-19T13:58:35;4.10;;;3.90;;
9797;SDS011;4938;57.492;12.652;2022-08-19T14:01:23;4.50;;;4.30;;
9797;SDS011;4938;57.492;12.652;2022-08-19T14:04:13;4.45;;;4.25;;
9797;SDS011;4938;57.492;12.652;2022-08-19T14:07:00;4.38;;;4.18;;
9797;SDS011;4938;57.492;12.652;2022-08-19T14:09:47;4.80;;;4.60;;
9797;SDS011;4938;57.492;12.652;2022-08-19T14:12:33;4.40;;;4.20;;
9797;SDS011;4938;57.492;12.652;2022-08-19T14:15:21;4.47;;;4.28;;
9797;SDS011;4938;57.492;12.652;2022-08-19T14:18:09;4.20;;;4.00;;
9797;SDS011;4938;57.492;12.652;2022-08-19T14:20:58;4.35;;;4.15;;
9797;SDS011;4938;57.492;12.652;2022-08-19T14:23:45;4.43;;;4.22;;
9797;SDS011;4938;57.492;12.652;2022-08-19T14:26:33;4.50;;;4.30;;
9797;SDS011;4938;57.492;12.652;2022-08-19T14:29:19;4.20;;;4.00;;
9797;SDS011;4938;57.492;12.652;2022-08-19T14:32:07;4.28;;;4.07;;
9797;SDS011;4938;57.492;12.652;2022-08-19T14:34:54;4.45;;;4.25;;
9797;SDS011;4938;57.492;12.652;2022-08-19T14:37:42;4.47;;;4.28;;
9797;SDS011;4938;57.492;12.652;2022-08-19T14:40:31;4.60;;;4.40;;
9797;SDS011;4938;57.492;12.652;2022-08-19T14:43:18;4.65;;;4.45;;
9797;SDS011;4938;57.492;12.652;2022-08-19T14:46:05;4.93;;;4.63;;
9797;SDS011;4938;57.492;12.652;2022-08-19T14:48:53;4.40;;;4.20;;
9797;SDS011;4938;57.492;12.652;2022-08-19T14:51:41;4.30;;;4.10;;
9797;SDS011;4938;57.492;12.652;2022-08-19T14:54:29;4.35;;;4.15;;
9797;SDS011;4938;57.492;12.652;2022-08-19T14:57:16;4.50;;;4.30;;
9797;SDS011;4938;57.492;12.652;2022-08-19T15:00:04;4.85;;;4.55;;
9797;SDS011;4938;57.492;12.652;2022-08-19T15:02:52;4.38;;;4.18;;
9797;SDS011;4938;57.492;12.652;2022-08-19T15:05:39;5.20;;;4.90;;
9797;SDS011;4938;57.492;12.652;2022-08-19T15:08:27;4.53;;;4.32;;
9797;SDS011;4938;57.492;12.652;2022-08-19T15:11:18;4.30;;;4.10;;
9797;SDS011;4938;57.492;12.652;2022-08-19T15:14:06;4.40;;;4.20;;
9797;SDS011;4938;57.492;12.652;2022-08-19T15:16:54;4.25;;;4.05;;
9797;SDS011;4938;57.492;12.652;2022-08-19T15:19:41;4.13;;;3.92;;
9797;SDS011;4938;57.492;12.652;2022-08-19T15:22:28;4.13;;;3.92;;
9797;SDS011;4938;57.492;12.652;2022-08-19T15:25:16;4.63;;;4.43;;
9797;SDS011;4938;57.492;12.652;2022-08-19T15:28:07;4.25;;;4.05;;
9797;SDS011;4938;57.492;12.652;2022-08-19T15:30:56;4.35;;;4.15;;
9797;SDS011;4938;57.492;12.652;2022-08-19T15:33:43;4.20;;;4.00;;
9797;SDS011;4938;57.492;12.652;2022-08-19T15:36:30;4.32;;;4.13;;
9797;SDS011;4938;57.492;12.652;2022-08-19T15:39:17;3.95;;;3.75;;
9797;SDS011;4938;57.492;12.652;2022-08-19T15:42:05;4.47;;;4.28;;
9797;SDS011;4938;57.492;12.652;2022-08-19T15:44:54;4.40;;;4.20;;
9797;SDS011;4938;57.492;12.652;2022-08-19T15:47:41;4.28;;;4.07;;
9797;SDS011;4938;57.492;12.652;2022-08-19T15:50:28;4.40;;;4.20;;
9797;SDS011;4938;57.492;12.652;2022-08-19T15:53:17;4.30;;;4.10;;
9797;SDS011;4938;57.492;12.652;2022-08-19T15:56:04;4.18;;;3.97;;
9797;SDS011;4938;57.492;12.652;2022-08-19T15:58:51;4.28;;;4.07;;
9797;SDS011;4938;57.492;12.652;2022-08-19T16:01:57;4.07;;;3.88;;
9797;SDS011;4938;57.492;12.652;2022-08-19T16:05:02;4.30;;;4.10;;
9797;SDS011;4938;57.492;12.652;2022-08-19T16:08:09;4.30;;;4.10;;
9797;SDS011;4938;57.492;12.652;2022-08-19T16:10:56;3.88;;;3.78;;
9797;SDS011;4938;57.492;12.652;2022-08-19T16:13:43;4.30;;;4.10;;
9797;SDS011;4938;57.492;12.652;2022-08-19T16:16:31;4.15;;;3.95;;
9797;SDS011;4938;57.492;12.652;2022-08-19T16:19:21;4.50;;;4.20;;
9797;SDS011;4938;57.492;12.652;2022-08-19T16:22:09;4.50;;;4.30;;
9797;SDS011;4938;57.492;12.652;2022-08-19T16:24:56;4.38;;;4.18;;
9797;SDS011;4938;57.492;12.652;2022-08-19T16:27:43;4.60;;;4.40;;
9797;SDS011;4938;57.492;12.652;2022-08-19T16:30:30;4.10;;;3.90;;
9797;SDS011;4938;57.492;12.652;2022-08-19T16:33:17;4.38;;;4.18;;
9797;SDS011;4938;57.492;12.652;2022-08-19T16:36:05;4.20;;;4.00;;
9797;SDS011;4938;57.492;12.652;2022-08-19T16:38:53;4.18;;;3.97;;
9797;SDS011;4938;57.492;12.652;2022-08-19T16:41:42;4.43;;;4.22;;
9797;SDS011;4938;57.492;12.652;2022-08-19T16:44:30;4.10;;;3.90;;
9797;SDS011;4938;57.492;12.652;2022-08-19T16:47:17;4.30;;;4.10;;
9797;SDS011;4938;57.492;12.652;2022-08-19T16:50:04;4.18;;;3.97;;
9797;SDS011;4938;57.492;12.652;2022-08-19T16:52:54;4.32;;;4.13;;
9797;SDS011;4938;57.492;12.652;2022-08-19T16:55:42;4.00;;;3.85;;
9797;SDS011;4938;57.492;12.652;2022-08-19T16:58:31;4.40;;;4.20;;
9797;SDS011;4938;57.492;12.652;2022-08-19T17:01:19;4.40;;;4.20;;
9797;SDS011;4938;57.492;12.652;2022-08-19T17:04:06;4.22;;;4.03;;
9797;SDS011;4938;57.492;12.652;2022-08-19T17:06:53;4.60;;;4.40;;
9797;SDS011;4938;57.492;12.652;2022-08-19T17:09:41;4.50;;;4.30;;
9797;SDS011;4938;57.492;12.652;2022-08-19T17:12:28;4.30;;;4.10;;